PWSweather.com
Personal Weather Stations
Station Observations
PENICUIKWS
PenicuikGB

PenicuikGB

Lat: 55.830932, Lon: -3.224533000000065

Elevation: 166

Station Type: Fine Offset

http://weather.penicuik.org

Latest ConditionsUpdated 12:00:03 PM GMT Friday, Jun 23, 2017
Currently Today's Max Today's Min Today's Average
Temperature 65.8°F18.8°C 65.8°F18.8°C 54.0°F12.2°C 57.4°F14.1°C
Dew Point 55.0°F12.8°C 58.2°F14.6°C 50.7°F10.4°C 54.1°F12.3°C
Winds 5.2 mph SSW8.4 kmh SSW 8.1 mph SW13.0 kmh SW - 3.7 mph 6.0 kmh
Wind Gusts 10.7 mph17.2 kmh 13.6 mph21.9 kmh - -
Humidity 68% 95% 68% 89%
Pressure 29.74 in1007.1 mb 29.80 in1009.1 mb 29.68 in1005.1 mb -
Precipitation - 0.05 in1.3 mm - -
Hour Temp Dew Point Humidity Winds Wind Gusts Pressure Precip Precip Rate Daily Precip Total
12:00 PM 65.8°F18.8°C 55.0°F12.8°C 68% 5.2 mph SSW8.4 kmh SSW 10.7 mph17.2 kmh 29.74 in1007.1 mb 0.00 in0.0 mm 0.00 in0.0 mm 0.05 in1.3 mm
11:45 AM 62.8°F17.1°C 53.3°F11.8°C 71% 5.4 mph ENE8.7 kmh ENE 13.6 mph21.9 kmh 29.73 in1006.8 mb 0.00 in0.0 mm 0.00 in0.0 mm 0.05 in1.3 mm
11:30 AM 61.5°F16.4°C 53.5°F11.9°C 75% 3.9 mph WNW6.3 kmh WNW 5.4 mph8.7 kmh 29.73 in1006.8 mb 0.00 in0.0 mm 0.00 in0.0 mm 0.05 in1.3 mm
11:15 AM 61.5°F16.4°C 54.3°F12.4°C 77% 4.4 mph NW7.1 kmh NW 6.0 mph9.7 kmh 29.73 in1006.8 mb 0.00 in0.0 mm 0.00 in0.0 mm 0.05 in1.3 mm
11:00 AM 61.7°F16.5°C 55.1°F12.8°C 79% 3.2 mph W5.1 kmh W 5.4 mph8.7 kmh 29.73 in1006.8 mb 0.00 in0.0 mm 0.00 in0.0 mm 0.05 in1.3 mm
10:45 AM 62.8°F17.1°C 55.8°F13.2°C 78% 7.1 mph SSW11.4 kmh SSW 7.6 mph12.2 kmh 29.71 in1006.1 mb 0.00 in0.0 mm 0.00 in0.0 mm 0.05 in1.3 mm
10:30 AM 63.5°F17.5°C 56.2°F13.4°C 77% 3.8 mph N6.1 kmh N 3.8 mph6.1 kmh 29.71 in1006.1 mb 0.00 in0.0 mm 0.00 in0.0 mm 0.05 in1.3 mm
10:15 AM 62.2°F16.8°C 57.0°F13.9°C 83% 3.1 mph SW5.0 kmh SW 3.1 mph5.0 kmh 29.71 in1006.1 mb 0.00 in0.0 mm 0.00 in0.0 mm 0.05 in1.3 mm
10:00 AM 62.4°F16.9°C 58.2°F14.6°C 86% 8.1 mph SW13.0 kmh SW 8.3 mph13.4 kmh 29.71 in1006.1 mb 0.00 in0.0 mm 0.00 in0.0 mm 0.05 in1.3 mm
09:45 AM 61.7°F16.5°C 57.5°F14.2°C 86% 4.6 mph WNW7.4 kmh WNW 6.0 mph9.7 kmh 29.70 in1005.8 mb 0.00 in0.0 mm 0.00 in0.0 mm 0.05 in1.3 mm
09:30 AM 61.2°F16.2°C 57.6°F14.2°C 88% 4.2 mph WNW6.8 kmh WNW 12.1 mph19.5 kmh 29.70 in1005.8 mb 0.00 in0.0 mm 0.00 in0.0 mm 0.05 in1.3 mm
09:15 AM 60.8°F16.0°C 57.2°F14.0°C 88% 3.8 mph WSW6.1 kmh WSW 6.0 mph9.7 kmh 29.70 in1005.8 mb 0.00 in0.0 mm 0.00 in0.0 mm 0.05 in1.3 mm
09:00 AM 59.9°F15.5°C 57.0°F13.9°C 90% 4.3 mph N6.9 kmh N 6.9 mph11.1 kmh 29.70 in1005.8 mb 0.00 in0.0 mm 0.00 in0.0 mm 0.05 in1.3 mm
08:45 AM 59.2°F15.1°C 56.6°F13.7°C 91% 3.8 mph SW6.1 kmh SW 4.5 mph7.2 kmh 29.70 in1005.8 mb 0.00 in0.0 mm 0.00 in0.0 mm 0.05 in1.3 mm
08:30 AM 59.0°F15.0°C 56.7°F13.7°C 92% 4.3 mph NW6.9 kmh NW 7.6 mph12.2 kmh 29.69 in1005.4 mb 0.00 in0.0 mm 0.00 in0.0 mm 0.05 in1.3 mm
08:15 AM 58.5°F14.7°C 56.5°F13.6°C 93% 5.0 mph SW8.0 kmh SW 10.7 mph17.2 kmh 29.70 in1005.8 mb 0.00 in0.0 mm 0.00 in0.0 mm 0.05 in1.3 mm
08:00 AM 58.3°F14.6°C 56.3°F13.5°C 93% 4.6 mph WNW7.4 kmh WNW 7.6 mph12.2 kmh 29.69 in1005.4 mb 0.00 in0.0 mm 0.00 in0.0 mm 0.05 in1.3 mm
07:45 AM 57.7°F14.3°C 55.7°F13.2°C 93% 3.4 mph NNW5.5 kmh NNW 4.5 mph7.2 kmh 29.70 in1005.8 mb 0.00 in0.0 mm 0.00 in0.0 mm 0.05 in1.3 mm
07:30 AM 56.7°F13.7°C 55.0°F12.8°C 94% 4.1 mph N6.6 kmh N 6.9 mph11.1 kmh 29.69 in1005.4 mb 0.00 in0.0 mm 0.00 in0.0 mm 0.05 in1.3 mm
07:15 AM 56.5°F13.6°C 54.8°F12.7°C 94% 3.0 mph WNW4.8 kmh WNW 4.5 mph7.2 kmh 29.70 in1005.8 mb 0.00 in0.0 mm 0.00 in0.0 mm 0.05 in1.3 mm
07:00 AM 56.3°F13.5°C 54.3°F12.4°C 93% 4.4 mph NW7.1 kmh NW 6.9 mph11.1 kmh 29.69 in1005.4 mb 0.00 in0.0 mm 0.00 in0.0 mm 0.05 in1.3 mm
06:45 AM 56.7°F13.7°C 54.7°F12.6°C 93% 2.5 mph N4.0 kmh N 4.5 mph7.2 kmh 29.69 in1005.4 mb 0.00 in0.0 mm 0.00 in0.0 mm 0.05 in1.3 mm
06:30 AM 56.8°F13.8°C 54.6°F12.6°C 92% 4.3 mph SW6.9 kmh SW 7.6 mph12.2 kmh 29.69 in1005.4 mb 0.00 in0.0 mm 0.00 in0.0 mm 0.05 in1.3 mm
06:15 AM 58.1°F14.5°C 55.2°F12.9°C 90% 4.5 mph WNW7.2 kmh WNW 6.9 mph11.1 kmh 29.68 in1005.1 mb 0.00 in0.0 mm 0.00 in0.0 mm 0.05 in1.3 mm
06:00 AM 57.0°F13.9°C 54.7°F12.6°C 92% 4.1 mph WSW6.6 kmh WSW 10.7 mph17.2 kmh 29.68 in1005.1 mb 0.00 in0.0 mm 0.00 in0.0 mm 0.05 in1.3 mm
05:45 AM 56.3°F13.5°C 54.0°F12.2°C 92% 5.5 mph NW8.9 kmh NW 8.3 mph13.4 kmh 29.69 in1005.4 mb 0.00 in0.0 mm 0.00 in0.0 mm 0.05 in1.3 mm
05:30 AM 56.3°F13.5°C 54.0°F12.2°C 92% 4.4 mph W7.1 kmh W 6.9 mph11.1 kmh 29.69 in1005.4 mb 0.00 in0.0 mm 0.00 in0.0 mm 0.05 in1.3 mm
05:15 AM 55.2°F12.9°C 52.9°F11.6°C 92% 3.7 mph E6.0 kmh E 5.4 mph8.7 kmh 29.68 in1005.1 mb 0.00 in0.0 mm 0.00 in0.0 mm 0.05 in1.3 mm
05:00 AM 55.2°F12.9°C 53.2°F11.8°C 93% 3.7 mph W6.0 kmh W 6.9 mph11.1 kmh 29.68 in1005.1 mb 0.00 in0.0 mm 0.00 in0.0 mm 0.05 in1.3 mm
04:45 AM 55.2°F12.9°C 53.5°F11.9°C 94% 3.7 mph NW6.0 kmh NW 5.4 mph8.7 kmh 29.69 in1005.4 mb 0.00 in0.0 mm 0.00 in0.0 mm 0.05 in1.3 mm
04:30 AM 54.9°F12.7°C 53.2°F11.8°C 94% 4.1 mph NNW6.6 kmh NNW 6.0 mph9.7 kmh 29.69 in1005.4 mb 0.00 in0.0 mm 0.00 in0.0 mm 0.05 in1.3 mm
04:15 AM 54.7°F12.6°C 53.0°F11.7°C 94% 4.1 mph W6.6 kmh W 6.9 mph11.1 kmh 29.70 in1005.8 mb 0.00 in0.0 mm 0.00 in0.0 mm 0.05 in1.3 mm
04:00 AM 54.5°F12.5°C 53.1°F11.7°C 95% 4.6 mph NNW7.4 kmh NNW 6.9 mph11.1 kmh 29.70 in1005.8 mb 0.00 in0.0 mm 0.00 in0.0 mm 0.05 in1.3 mm
03:45 AM 54.3°F12.4°C 52.9°F11.6°C 95% 3.6 mph NE5.8 kmh NE 6.0 mph9.7 kmh 29.70 in1005.8 mb 0.00 in0.0 mm 0.00 in0.0 mm 0.05 in1.3 mm
03:30 AM 54.1°F12.3°C 52.7°F11.5°C 95% 2.7 mph SW4.3 kmh SW 4.5 mph7.2 kmh 29.70 in1005.8 mb 0.00 in0.0 mm 0.00 in0.0 mm 0.05 in1.3 mm
03:15 AM 54.1°F12.3°C 52.7°F11.5°C 95% 3.0 mph NE4.8 kmh NE 5.4 mph8.7 kmh 29.69 in1005.4 mb 0.01 in0.3 mm 0.00 in0.0 mm 0.05 in1.3 mm
03:00 AM 54.0°F12.2°C 52.6°F11.4°C 95% 3.6 mph N5.8 kmh N 6.0 mph9.7 kmh 29.71 in1006.1 mb 0.01 in0.3 mm 0.00 in0.0 mm 0.05 in1.3 mm
02:45 AM 54.0°F12.2°C 52.6°F11.4°C 95% 2.8 mph WNW4.5 kmh WNW 6.9 mph11.1 kmh 29.73 in1006.8 mb 0.02 in0.5 mm 0.00 in0.0 mm 0.05 in1.3 mm
02:30 AM 54.0°F12.2°C 52.6°F11.4°C 95% 3.4 mph N5.5 kmh N 8.3 mph13.4 kmh 29.74 in1007.1 mb 0.04 in1.0 mm 0.08 in2.0 mm 0.05 in1.3 mm
02:15 AM 54.0°F12.2°C 52.3°F11.3°C 94% 2.8 mph N4.5 kmh N 4.5 mph7.2 kmh 29.73 in1006.8 mb 0.02 in0.5 mm 0.00 in0.0 mm 0.04 in1.0 mm
02:00 AM 54.0°F12.2°C 52.0°F11.1°C 93% 2.3 mph N3.7 kmh N 3.8 mph6.1 kmh 29.73 in1006.8 mb 0.04 in1.0 mm 0.03 in0.8 mm 0.04 in1.0 mm
01:45 AM 54.1°F12.3°C 51.9°F11.1°C 92% 2.3 mph N3.7 kmh N 3.8 mph6.1 kmh 29.74 in1007.1 mb 0.02 in0.5 mm 0.04 in1.0 mm 0.02 in0.5 mm
01:30 AM 54.3°F12.4°C 51.8°F11.0°C 91% 2.2 mph WSW3.5 kmh WSW 3.1 mph5.0 kmh 29.75 in1007.5 mb 0.01 in0.3 mm 0.00 in0.0 mm 0.01 in0.3 mm
01:15 AM 54.9°F12.7°C 51.7°F10.9°C 89% 1.9 mph NW3.1 kmh NW 3.8 mph6.1 kmh 29.77 in1008.1 mb 0.01 in0.3 mm 0.04 in1.0 mm 0.01 in0.3 mm
01:00 AM 55.4°F13.0°C 51.0°F10.6°C 85% 2.4 mph SW3.9 kmh SW 5.4 mph8.7 kmh 29.79 in1008.8 mb 0.00 in0.0 mm 0.00 in0.0 mm 0.00 in0.0 mm
12:45 AM 55.4°F13.0°C 50.7°F10.4°C 84% 1.7 mph N2.7 kmh N 3.8 mph6.1 kmh 29.77 in1008.1 mb 0.00 in0.0 mm 0.00 in0.0 mm 0.00 in0.0 mm
12:30 AM 55.4°F13.0°C 50.7°F10.4°C 84% 1.9 mph S3.1 kmh S 3.1 mph5.0 kmh 29.78 in1008.5 mb 0.00 in0.0 mm 0.00 in0.0 mm 0.00 in0.0 mm
12:15 AM 55.4°F13.0°C 50.7°F10.4°C 84% 1.9 mph NNW3.1 kmh NNW 3.8 mph6.1 kmh 29.80 in1009.1 mb 0.00 in0.0 mm 0.00 in0.0 mm 0.00 in0.0 mm
12:00 AM 55.4°F13.0°C 51.0°F10.6°C 85% 2.0 mph SW3.2 kmh SW 3.8 mph6.1 kmh 29.80 in1009.1 mb 0.00 in0.0 mm 0.00 in0.0 mm 0.00 in0.0 mm